Terminal Aerodrome Forecast
Issued by NWS

Home | Current Version | Previous Version | Graphics & Text | Print | Product List | Glossary On
Versions: 1 2 3 4 5 6 7 8 9 10 11 12 13 14 15 16 17 18 19 20 21 22 23 24
721
FTUS43 KBIS 141135 AAA
TAFDIK
TAF AMD
KDIK 141135Z 1412/1512 12009KT P6SM SCT100
     FM142000 13011KT P6SM SCT060 BKN100
      TEMPO 1423/1503 -TSRA OVC060CB
     FM150300 16007KT P6SM -SHRA OVC060=

USA.gov is the U.S. government's official web portal to all federal, state and local government web resources and services.